Time;durP1;ratioP1;P1;durP2;ratioP2;P2;SDS_P1;SDS_P2;PMS_P1;PMS_P2;Temp;Humidity;BMP_temperature;BMP_pressure;BME280_temperature;BME280_humidity;BME280_pressure;Samples;Min_cycle;Max_cycle;Signal;HPM_P1;HPM_P2
2021/06/06 00:01:41;;;;;;;11.88;10.10;;;;;;;22.42;85.46;101319.22;5033483;28;20051;-73
2021/06/06 00:04:20;;;;;;;14.13;10.15;;;;;;;22.14;86.96;101319.69;5037624;28;20041;-73
2021/06/06 00:06:45;;;;;;;12.43;9.68;;;;;;;21.99;86.87;101313.66;5039920;28;20390;-73
2021/06/06 00:09:15;;;;;;;10.77;9.32;;;;;;;22.10;85.57;101322.50;5039281;28;20029;-73
2021/06/06 00:11:43;;;;;;;9.98;8.48;;;;;;;22.17;84.61;101313.38;5040150;28;20478;-74
2021/06/06 00:14:13;;;;;;;11.13;8.85;;;;;;;22.19;84.11;101319.22;5049565;28;20060;-73
2021/06/06 00:16:43;;;;;;;11.15;8.75;;;;;;;22.27;84.06;101312.41;5042618;28;20040;-74
2021/06/06 00:19:08;;;;;;;11.20;8.45;;;;;;;22.22;84.36;101323.88;5028403;28;20040;-73
2021/06/06 00:21:36;;;;;;;16.67;8.93;;;;;;;22.23;83.27;101323.47;5041964;28;20028;-73
2021/06/06 00:24:02;;;;;;;14.30;8.85;;;;;;;22.32;82.65;101329.19;5039221;28;20029;-73
2021/06/06 00:26:28;;;;;;;13.25;9.23;;;;;;;22.21;82.57;101325.84;5040569;28;20037;-73
2021/06/06 00:28:54;;;;;;;10.48;8.45;;;;;;;22.19;83.42;101328.22;5048204;28;20091;-73
2021/06/06 00:31:20;;;;;;;11.48;8.68;;;;;;;22.18;82.98;101331.41;5025732;28;20060;-73
2021/06/06 00:33:49;;;;;;;12.18;8.57;;;;;;;22.20;83.43;101329.00;5024560;28;20029;-73
2021/06/06 00:36:15;;;;;;;10.32;7.97;;;;;;;22.23;84.10;101328.94;5047238;28;20025;-73
2021/06/06 00:38:41;;;;;;;10.18;8.52;;;;;;;22.06;82.47;101329.22;5045008;28;20040;-73
2021/06/06 00:41:08;;;;;;;11.10;8.68;;;;;;;21.98;81.60;101331.31;5018465;28;20473;-74
2021/06/06 00:43:34;;;;;;;11.15;8.80;;;;;;;21.94;82.61;101327.84;5026942;28;20119;-73
2021/06/06 00:46:02;;;;;;;12.43;8.73;;;;;;;21.97;82.88;101331.75;5030895;28;20033;-73
2021/06/06 00:48:29;;;;;;;14.68;9.05;;;;;;;22.02;83.43;101334.00;5023810;28;20033;-73
2021/06/06 00:51:15;;;;;;;11.23;8.88;;;;;;;22.02;83.22;101334.78;5043804;28;20080;-74
2021/06/06 00:53:44;;;;;;;;;;;;;;;21.89;83.10;101338.53;5042412;28;20040;-73
2021/06/06 00:56:18;;;;;;;13.38;9.07;;;;;;;22.06;82.92;101341.00;5045815;28;19917;-73
2021/06/06 00:58:47;;;;;;;11.57;9.02;;;;;;;21.94;83.82;101338.81;5030924;28;20531;-73
2021/06/06 01:01:17;;;;;;;12.75;8.93;;;;;;;21.91;84.63;101339.63;5021960;28;20422;-73
2021/06/06 01:03:46;;;;;;;12.20;8.90;;;;;;;21.84;84.77;101349.94;5021797;28;20036;-73
2021/06/06 01:06:27;;;;;;;13.05;9.05;;;;;;;21.82;85.31;101352.31;5040900;28;20123;-73
2021/06/06 01:08:53;;;;;;;10.93;9.35;;;;;;;21.88;85.82;101347.94;5045045;28;20029;-73
2021/06/06 01:11:47;;;;;;;13.82;9.90;;;;;;;21.85;86.93;101357.00;5026556;28;20401;-73
2021/06/06 01:14:18;;;;;;;17.13;9.75;;;;;;;21.82;87.39;101342.13;5043662;28;20374;-72
2021/06/06 01:16:55;;;;;;;13.00;10.10;;;;;;;21.79;87.95;101339.41;5043962;28;20057;-73
2021/06/06 01:19:36;;;;;;;15.48;9.35;;;;;;;21.68;88.62;101341.53;5053060;28;20031;-74
2021/06/06 01:22:31;;;;;;;13.65;10.93;;;;;;;21.58;90.39;101341.25;5029796;28;20037;-73
2021/06/06 01:25:08;;;;;;;15.57;12.75;;;;;;;21.42;92.05;101341.09;5040108;28;20076;-73
2021/06/06 01:27:39;;;;;;;17.17;14.00;;;;;;;21.31;94.59;101342.44;5026012;28;20470;-73
2021/06/06 01:30:13;;;;;;;21.63;15.32;;;;;;;21.19;96.14;101332.78;5045499;28;20048;-73
2021/06/06 01:32:47;;;;;;;18.77;14.55;;;;;;;21.45;95.07;101334.00;5045044;28;20084;-72
2021/06/06 01:35:27;;;;;;;17.77;14.35;;;;;;;21.62;94.66;101329.47;5041287;28;20175;-73
2021/06/06 01:38:03;;;;;;;19.35;15.38;;;;;;;21.68;95.25;101338.81;5026278;28;20064;-73
2021/06/06 01:40:33;;;;;;;22.67;15.85;;;;;;;21.69;95.25;101340.34;5048797;28;20025;-73
2021/06/06 01:43:04;;;;;;;24.00;16.38;;;;;;;21.69;95.61;101343.09;5028169;28;20029;-72
2021/06/06 01:45:51;;;;;;;22.08;16.60;;;;;;;21.89;94.83;101336.53;5020114;28;20037;-74
2021/06/06 01:48:17;;;;;;;23.15;17.42;;;;;;;21.92;95.45;101334.94;5026920;28;20033;-73
2021/06/06 01:51:04;;;;;;;23.80;16.23;;;;;;;21.77;96.79;101330.81;5030500;28;20040;-72
2021/06/06 01:53:31;;;;;;;24.40;16.40;;;;;;;21.80;96.49;101339.03;5048345;28;20037;-73
2021/06/06 01:56:02;;;;;;;20.88;17.23;;;;;;;21.81;96.86;101331.59;5023618;28;20382;-74
2021/06/06 01:58:37;;;;;;;20.30;16.33;;;;;;;21.88;97.05;101339.69;5029766;28;20354;-74
2021/06/06 02:01:16;;;;;;;23.27;16.77;;;;;;;21.86;97.15;101331.09;5023316;28;20041;-73
2021/06/06 02:03:47;;;;;;;25.00;17.83;;;;;;;21.87;97.68;101329.94;5045598;28;20684;-74
2021/06/06 02:06:26;;;;;;;36.83;27.55;;;;;;;21.83;99.14;101332.72;5047526;28;20115;-76
2021/06/06 02:08:56;;;;;;;41.97;29.65;;;;;;;21.88;99.64;101331.47;5044729;28;20048;-73
2021/06/06 02:11:38;;;;;;;42.97;32.70;;;;;;;21.87;100.00;101327.19;5023118;28;20041;-73
2021/06/06 02:14:13;;;;;;;47.95;34.33;;;;;;;21.82;100.00;101331.16;5031534;28;20115;-74
2021/06/06 02:16:43;;;;;;;51.38;36.45;;;;;;;21.86;100.00;101331.09;5029392;28;20119;-73
2021/06/06 02:19:24;;;;;;;57.50;39.90;;;;;;;21.93;100.00;101328.28;5023076;28;20116;-73
2021/06/06 02:22:04;;;;;;;60.05;40.30;;;;;;;21.94;100.00;101327.84;5026737;28;20024;-73
2021/06/06 02:24:35;;;;;;;56.22;40.97;;;;;;;21.97;100.00;101331.75;5051480;28;20037;-74
2021/06/06 02:27:10;;;;;;;56.67;39.88;;;;;;;21.90;100.00;101331.81;5025765;28;20124;-74
2021/06/06 02:29:36;;;;;;;59.95;42.42;;;;;;;21.77;100.00;101328.88;5028522;28;20068;-74
2021/06/06 02:32:24;;;;;;;59.38;40.58;;;;;;;21.73;100.00;101339.13;5011379;28;20489;-73
2021/06/06 02:34:59;;;;;;;57.60;39.90;;;;;;;21.79;100.00;101333.94;5024037;28;20103;-73
2021/06/06 02:37:26;;;;;;;60.67;42.13;;;;;;;21.78;100.00;101329.63;5029779;28;20029;-73
2021/06/06 02:39:58;;;;;;;66.07;42.80;;;;;;;21.73;100.00;101330.09;5026232;28;20560;-74
2021/06/06 02:42:34;;;;;;;62.78;43.53;;;;;;;21.74;100.00;101331.66;5032925;28;20047;-73
2021/06/06 02:45:16;;;;;;;63.83;42.08;;;;;;;21.76;100.00;101334.75;5031255;28;20033;-74
2021/06/06 02:47:44;;;;;;;61.25;43.70;;;;;;;21.65;100.00;101329.44;5028184;28;20033;-74
2021/06/06 02:50:25;;;;;;;66.75;43.88;;;;;;;21.69;100.00;101337.59;5031650;28;20500;-74
2021/06/06 02:53:18;;;;;;;67.43;46.08;;;;;;;21.65;100.00;101334.13;5037457;28;20060;-75
2021/06/06 02:55:50;;;;;;;63.25;44.03;;;;;;;21.68;100.00;101330.56;5020404;28;20133;-74
2021/06/06 02:58:27;;;;;;;64.75;44.58;;;;;;;21.58;100.00;101330.28;5030180;28;20032;-74
2021/06/06 03:01:00;;;;;;;63.92;44.28;;;;;;;21.66;100.00;101335.69;5028510;28;20833;-73
2021/06/06 03:03:31;;;;;;;66.40;45.10;;;;;;;21.70;100.00;101328.94;5043499;28;20183;-75
2021/06/06 03:06:09;;;;;;;70.78;47.47;;;;;;;21.67;100.00;101326.25;5028206;28;20036;-74
2021/06/06 03:08:35;;;;;;;67.32;45.53;;;;;;;21.70;100.00;101328.94;5025953;28;20174;-73
2021/06/06 03:11:04;;;;;;;67.32;46.28;;;;;;;21.75;100.00;101330.47;5031965;28;20083;-74
2021/06/06 03:13:37;;;;;;;70.90;46.63;;;;;;;21.73;100.00;101332.84;5047394;28;20040;-73
2021/06/06 03:16:03;;;;;;;;;;;;;;;21.62;100.00;101326.75;5049238;28;20029;-75
2021/06/06 03:18:40;;;;;;;67.25;43.50;;;;;;;21.49;100.00;101337.47;5032761;28;20349;-75
2021/06/06 03:21:10;;;;;;;68.75;47.15;;;;;;;21.54;100.00;101337.03;5028399;28;20446;-74
2021/06/06 03:23:38;;;;;;;68.18;43.50;;;;;;;21.54;100.00;101331.56;5018137;28;20511;-74
2021/06/06 03:26:10;;;;;;;72.22;46.83;;;;;;;21.57;100.00;101330.72;5030553;28;20120;-74
2021/06/06 03:28:44;;;;;;;67.22;44.10;;;;;;;21.64;100.00;101338.06;5032388;28;20040;-74
2021/06/06 03:31:38;;;;;;;66.00;44.75;;;;;;;21.60;100.00;101332.66;5020763;28;20239;-74
2021/06/06 03:34:06;;;;;;;65.50;44.88;;;;;;;21.58;100.00;101339.72;5044773;28;20055;-75
2021/06/06 03:36:46;;;;;;;71.00;44.80;;;;;;;21.50;100.00;101341.78;5024720;28;20426;-74
2021/06/06 03:39:38;;;;;;;66.93;44.05;;;;;;;21.42;100.00;101351.28;5010079;28;20044;-74
2021/06/06 03:42:07;;;;;;;65.85;43.17;;;;;;;21.38;100.00;101347.81;5022275;28;20068;-74
2021/06/06 03:44:38;;;;;;;66.75;42.95;;;;;;;21.43;100.00;101352.81;5036152;28;20033;-74
2021/06/06 03:47:05;;;;;;;71.75;45.40;;;;;;;21.45;100.00;101348.50;5024322;28;20048;-74
2021/06/06 03:49:33;;;;;;;67.07;43.92;;;;;;;21.36;100.00;101359.19;5049987;28;20041;-74
2021/06/06 03:52:00;;;;;;;69.55;44.28;;;;;;;21.32;100.00;101355.72;5022340;28;20041;-74
2021/06/06 03:54:27;;;;;;;69.00;44.13;;;;;;;21.39;100.00;101363.84;5050137;28;20047;-74
2021/06/06 03:56:53;;;;;;;71.43;45.08;;;;;;;21.40;100.00;101364.63;5049708;28;20115;-73
2021/06/06 03:59:22;;;;;;;67.80;42.67;;;;;;;21.38;100.00;101356.81;5026228;28;20127;-73
2021/06/06 04:01:49;;;;;;;65.22;43.65;;;;;;;21.34;100.00;101367.03;5029292;28;20404;-74
2021/06/06 04:04:18;;;;;;;64.13;42.72;;;;;;;21.39;100.00;101363.06;5037421;28;20033;-74
2021/06/06 04:06:44;;;;;;;66.13;43.63;;;;;;;21.39;100.00;101371.28;5031737;28;20400;-74
2021/06/06 04:09:12;;;;;;;65.03;43.10;;;;;;;21.36;100.00;101366.63;5049056;28;20033;-73
2021/06/06 04:11:39;;;;;;;67.18;44.05;;;;;;;21.31;100.00;101370.59;5025057;28;20036;-74
2021/06/06 04:14:15;;;;;;;72.78;43.20;;;;;;;21.36;100.00;101363.88;5016786;28;20387;-73
2021/06/06 04:16:44;;;;;;;66.78;43.45;;;;;;;21.29;100.00;101361.25;5027703;28;20052;-74
2021/06/06 04:19:12;;;;;;;64.68;41.35;;;;;;;21.27;100.00;101364.38;5029879;28;20033;-74
2021/06/06 04:21:38;;;;;;;68.03;44.20;;;;;;;21.30;100.00;101366.31;5043915;28;20370;-74
2021/06/06 04:24:04;;;;;;;65.82;43.25;;;;;;;21.31;100.00;101367.84;5030886;28;20144;-73
2021/06/06 04:26:34;;;;;;;68.72;44.50;;;;;;;21.38;100.00;101362.31;5027628;28;20044;-72
2021/06/06 04:29:01;;;;;;;73.47;43.88;;;;;;;21.33;100.00;101360.00;5032766;28;20508;-74
2021/06/06 04:31:30;;;;;;;70.97;44.50;;;;;;;21.33;100.00;101370.22;5025594;28;20355;-72
2021/06/06 04:33:58;;;;;;;71.10;43.42;;;;;;;21.32;100.00;101363.94;5001010;28;20033;-74
2021/06/06 04:36:26;;;;;;;70.25;45.40;;;;;;;21.33;100.00;101360.00;5031722;28;20035;-74
2021/06/06 04:38:53;;;;;;;72.18;44.53;;;;;;;21.31;100.00;101362.38;5040107;28;20087;-74
2021/06/06 04:41:24;;;;;;;69.93;44.90;;;;;;;21.31;100.00;101354.16;5043471;28;20414;-74
2021/06/06 04:43:50;;;;;;;72.65;45.70;;;;;;;21.41;100.00;101366.94;5031416;28;20059;-73
2021/06/06 04:46:18;;;;;;;74.70;46.92;;;;;;;21.28;100.00;101362.41;5027705;28;20525;-73
2021/06/06 04:48:46;;;;;;;71.93;46.42;;;;;;;21.45;100.00;101372.38;5038180;28;20091;-73
2021/06/06 04:51:21;;;;;;;74.05;45.80;;;;;;;21.37;100.00;101368.97;5028530;28;20438;-73
2021/06/06 04:53:57;;;;;;;70.85;44.30;;;;;;;21.40;100.00;101370.09;5032071;28;20033;-74
2021/06/06 04:56:27;;;;;;;68.60;43.55;;;;;;;21.31;100.00;101367.84;5043632;28;20424;-73
2021/06/06 04:58:53;;;;;;;61.85;39.88;;;;;;;21.36;100.00;101367.41;5036998;28;20558;-73
2021/06/06 05:01:20;;;;;;;62.38;39.40;;;;;;;21.28;100.00;101368.69;5046077;23;20044;-75
2021/06/06 05:03:49;;;;;;;59.20;38.75;;;;;;;21.26;100.00;101371.06;5061511;28;20028;-75
2021/06/06 05:06:17;;;;;;;60.53;38.53;;;;;;;21.30;99.97;101363.56;5050906;28;20033;-75
2021/06/06 05:08:44;;;;;;;57.42;37.15;;;;;;;21.23;100.00;101360.94;5047102;28;20029;-75
2021/06/06 05:11:10;;;;;;;56.28;37.63;;;;;;;21.20;100.00;101367.22;5061773;28;20032;-76
2021/06/06 05:13:37;;;;;;;65.43;40.13;;;;;;;21.20;100.00;101356.25;5025827;28;20041;-74
2021/06/06 05:16:04;;;;;;;59.65;38.35;;;;;;;21.11;100.00;101363.41;5032300;28;20384;-75
2021/06/06 05:18:31;;;;;;;62.33;38.20;;;;;;;21.08;100.00;101358.75;5037668;28;20048;-75
2021/06/06 05:21:00;;;;;;;64.13;40.38;;;;;;;21.00;100.00;101365.47;5031799;28;20041;-75
2021/06/06 05:23:28;;;;;;;59.88;39.50;;;;;;;21.05;100.00;101365.81;5032709;28;20496;-75
2021/06/06 05:26:01;;;;;;;64.15;39.53;;;;;;;21.17;100.00;101372.75;5026721;28;20086;-75
2021/06/06 05:28:29;;;;;;;63.13;40.03;;;;;;;21.04;100.00;101372.47;5043701;28;20029;-75
2021/06/06 05:30:56;;;;;;;60.88;39.80;;;;;;;21.08;100.00;101375.19;5048628;28;20127;-76
2021/06/06 05:33:22;;;;;;;68.13;41.05;;;;;;;21.00;100.00;101377.19;5040605;28;20110;-75
2021/06/06 05:35:48;;;;;;;62.13;39.38;;;;;;;21.06;100.00;101375.59;5051008;28;20068;-76
2021/06/06 05:38:16;;;;;;;63.92;41.17;;;;;;;21.03;100.00;101379.16;5040222;28;20045;-76
2021/06/06 05:40:42;;;;;;;67.35;40.53;;;;;;;21.08;100.00;101375.19;5043335;28;20030;-76
2021/06/06 05:43:11;;;;;;;65.80;39.80;;;;;;;20.97;99.82;101379.97;5038973;28;20049;-76
2021/06/06 05:45:37;;;;;;;58.03;37.10;;;;;;;21.01;99.08;101386.22;5048947;28;20116;-76
2021/06/06 05:48:05;;;;;;;56.78;37.83;;;;;;;20.98;99.15;101387.00;5048241;28;20073;-76
2021/06/06 05:50:35;;;;;;;58.58;37.67;;;;;;;20.99;99.28;101383.06;5045728;28;20036;-76
2021/06/06 05:53:17;;;;;;;59.40;37.88;;;;;;;20.94;99.82;101389.00;5029318;28;20029;-76
2021/06/06 05:55:44;;;;;;;59.17;36.83;;;;;;;20.99;99.59;101389.34;5042378;28;20446;-74
2021/06/06 05:58:12;;;;;;;60.35;37.75;;;;;;;20.96;99.62;101384.69;5027980;28;20323;-75
2021/06/06 06:00:41;;;;;;;62.85;39.05;;;;;;;20.93;99.90;101395.66;5042227;28;20044;-73
2021/06/06 06:03:08;;;;;;;62.67;37.90;;;;;;;21.13;98.35;101394.69;5037368;28;20043;-75
2021/06/06 06:05:34;;;;;;;57.47;37.33;;;;;;;21.04;98.86;101397.13;5033244;28;20040;-75
2021/06/06 06:08:15;;;;;;;56.00;36.50;;;;;;;20.84;99.46;101398.09;5034060;28;20182;-75
2021/06/06 06:10:41;;;;;;;60.17;36.88;;;;;;;20.87;100.00;101405.50;5032832;28;20065;-75
2021/06/06 06:13:07;;;;;;;57.35;36.88;;;;;;;20.89;99.70;101406.66;5041995;28;20045;-76
2021/06/06 06:15:32;;;;;;;57.35;36.53;;;;;;;20.92;99.15;101416.03;5014114;28;20044;-75
2021/06/06 06:17:58;;;;;;;59.53;36.40;;;;;;;20.90;99.34;101410.97;5028688;28;20033;-75
2021/06/06 06:20:23;;;;;;;52.97;35.15;;;;;;;20.89;99.14;101409.38;5051128;28;20037;-75
2021/06/06 06:22:49;;;;;;;56.42;35.05;;;;;;;20.93;98.77;101412.88;5043246;28;20044;-75
2021/06/06 06:25:16;;;;;;;57.97;37.17;;;;;;;20.96;99.04;101409.34;5030667;28;20068;-75
2021/06/06 06:27:42;;;;;;;57.13;35.72;;;;;;;21.06;97.62;101410.44;5036998;28;20032;-75
2021/06/06 06:30:25;;;;;;;57.40;35.75;;;;;;;20.98;98.05;101412.41;5044770;28;20060;-75
2021/06/06 06:32:51;;;;;;;57.00;35.10;;;;;;;20.91;98.43;101411.72;5033829;28;20045;-75
2021/06/06 06:35:17;;;;;;;55.38;35.72;;;;;;;21.02;98.50;101421.41;5049700;28;20063;-75
2021/06/06 06:37:43;;;;;;;52.50;34.22;;;;;;;20.95;98.96;101417.94;5043481;28;20111;-75
2021/06/06 06:40:12;;;;;;;57.50;35.35;;;;;;;21.07;98.52;101418.25;5053105;28;20037;-75
2021/06/06 06:42:38;;;;;;;54.58;33.42;;;;;;;21.09;97.67;101426.06;5048937;28;20466;-75
2021/06/06 06:45:07;;;;;;;54.40;34.47;;;;;;;21.05;97.84;101423.34;5042662;28;20116;-75
2021/06/06 06:47:33;;;;;;;54.00;34.88;;;;;;;21.03;97.37;101422.19;5044250;28;20037;-75
2021/06/06 06:49:59;;;;;;;56.15;35.05;;;;;;;21.01;97.81;101430.81;5042936;28;20062;-75
2021/06/06 06:52:25;;;;;;;57.70;34.95;;;;;;;21.00;97.82;101426.50;5037907;28;20083;-75
2021/06/06 06:54:52;;;;;;;56.10;34.28;;;;;;;20.92;97.89;101426.97;5047448;28;20032;-75
2021/06/06 06:57:18;;;;;;;51.40;32.75;;;;;;;20.91;98.43;101426.19;5037179;28;20551;-75
2021/06/06 06:59:44;;;;;;;54.40;33.65;;;;;;;20.99;97.88;101433.16;5039954;28;20111;-75
2021/06/06 07:02:09;;;;;;;56.00;33.15;;;;;;;20.97;97.78;101438.28;5037126;28;20560;-75
2021/06/06 07:04:35;;;;;;;54.30;33.67;;;;;;;20.98;97.04;101437.06;5052789;28;20730;-75
2021/06/06 07:07:00;;;;;;;51.55;32.33;;;;;;;21.01;97.39;101446.47;5047032;28;20026;-75
2021/06/06 07:09:26;;;;;;;52.25;32.70;;;;;;;20.99;96.97;101441.38;5048892;28;20071;-75
2021/06/06 07:11:55;;;;;;;52.42;33.15;;;;;;;20.92;97.77;101438.72;5035896;28;20083;-75
2021/06/06 07:14:21;;;;;;;52.67;32.45;;;;;;;21.01;96.62;101441.78;5041148;28;20025;-75
2021/06/06 07:16:47;;;;;;;50.42;32.72;;;;;;;20.97;97.08;101445.72;5029356;28;20079;-75
2021/06/06 07:19:13;;;;;;;53.15;32.50;;;;;;;20.99;97.03;101438.66;5034278;28;20025;-75
2021/06/06 07:21:38;;;;;;;51.80;31.08;;;;;;;20.89;98.38;101447.72;5023079;28;20598;-75
2021/06/06 07:24:05;;;;;;;47.70;31.10;;;;;;;20.88;99.16;101446.19;5034447;28;20064;-76
2021/06/06 07:26:34;;;;;;;48.10;30.38;;;;;;;20.92;98.57;101448.91;5015852;28;20030;-75
2021/06/06 07:29:04;;;;;;;51.13;30.85;;;;;;;20.97;97.39;101449.22;5039065;28;20025;-75
2021/06/06 07:31:30;;;;;;;46.67;30.33;;;;;;;20.98;97.09;101455.50;5042038;28;20029;-75
2021/06/06 07:33:55;;;;;;;42.90;27.58;;;;;;;20.91;97.71;101452.81;5042560;28;20041;-75
2021/06/06 07:36:23;;;;;;;44.70;27.20;;;;;;;20.90;97.71;101452.03;5035642;28;20033;-75
2021/06/06 07:38:49;;;;;;;43.65;27.65;;;;;;;20.94;97.78;101446.53;5044650;28;20443;-75
2021/06/06 07:41:19;;;;;;;42.50;27.65;;;;;;;20.93;97.94;101450.44;5050579;28;20082;-75
2021/06/06 07:43:45;;;;;;;41.85;26.83;;;;;;;20.91;98.34;101458.28;5043613;28;20497;-75
2021/06/06 07:46:17;;;;;;;39.95;26.50;;;;;;;20.80;98.06;101458.38;5044026;28;20063;-75
2021/06/06 07:48:44;;;;;;;40.63;26.25;;;;;;;20.76;99.61;101452.16;5029277;28;20068;-74
2021/06/06 07:51:10;;;;;;;38.55;26.00;;;;;;;20.72;100.00;101456.88;5036470;28;20509;-74
2021/06/06 07:53:36;;;;;;;36.88;25.00;;;;;;;20.75;100.00;101452.56;5040496;28;20905;-74
2021/06/06 07:56:02;;;;;;;39.20;25.60;;;;;;;20.80;99.26;101461.13;5023609;28;20107;-74
2021/06/06 07:58:32;;;;;;;39.78;25.50;;;;;;;20.78;98.77;101457.22;5039816;28;20030;-74
2021/06/06 08:00:58;;;;;;;42.17;27.30;;;;;;;20.85;98.86;101466.16;5038259;28;20036;-74
2021/06/06 08:03:24;;;;;;;38.38;25.25;;;;;;;20.80;98.90;101460.34;5041890;28;20030;-74
2021/06/06 08:05:50;;;;;;;38.58;26.13;;;;;;;20.76;99.79;101462.31;5039443;28;20393;-75
2021/06/06 08:08:17;;;;;;;41.58;26.27;;;;;;;20.78;100.00;101463.50;5043236;28;20032;-74
2021/06/06 08:10:48;;;;;;;39.70;26.17;;;;;;;20.61;100.00;101472.63;5026605;28;20518;-74
2021/06/06 08:13:13;;;;;;;37.45;25.00;;;;;;;20.61;100.00;101470.66;5040932;28;20568;-74
2021/06/06 08:15:40;;;;;;;36.85;24.88;;;;;;;20.71;99.90;101460.81;5028346;28;20044;-74
2021/06/06 08:18:08;;;;;;;38.30;24.38;;;;;;;20.75;100.00;101466.25;5049049;28;20032;-74
2021/06/06 08:21:04;;;;;;;38.70;24.77;;;;;;;20.77;99.58;101452.94;5049485;28;20041;-75
2021/06/06 08:23:30;;;;;;;32.72;22.92;;;;;;;20.89;99.33;101455.94;5039606;28;20037;-74
2021/06/06 08:25:57;;;;;;;34.35;23.60;;;;;;;20.96;98.67;101453.16;5040709;28;20063;-74
2021/06/06 08:28:23;;;;;;;33.72;23.25;;;;;;;20.97;99.15;101457.44;5036441;28;20151;-74
2021/06/06 08:30:58;;;;;;;35.22;23.00;;;;;;;21.00;99.55;101455.88;5042394;28;20044;-74
2021/06/06 08:33:29;;;;;;;36.67;23.65;;;;;;;20.98;98.46;101466.44;5024374;28;20032;-74
2021/06/06 08:35:58;;;;;;;33.55;22.15;;;;;;;20.99;98.46;101463.31;5030413;28;20044;-75
2021/06/06 08:38:25;;;;;;;36.80;23.15;;;;;;;21.05;98.23;101458.19;5034945;28;20124;-75
2021/06/06 08:40:56;;;;;;;34.22;23.38;;;;;;;21.05;98.05;101458.97;5040446;28;20143;-76
2021/06/06 08:43:26;;;;;;;35.45;23.98;;;;;;;20.99;98.90;101468.00;5031623;28;20034;-75
2021/06/06 08:45:58;;;;;;;36.42;23.50;;;;;;;21.07;98.40;101456.59;5033041;28;20182;-75
2021/06/06 08:48:27;;;;;;;39.35;23.40;;;;;;;21.06;97.97;101463.25;5039014;28;20056;-75
2021/06/06 08:51:22;;;;;;;38.22;24.58;;;;;;;21.16;98.11;101461.59;5022954;28;20048;-75
2021/06/06 08:54:20;;;;;;;38.88;24.90;;;;;;;21.16;97.54;101464.34;5002093;28;20060;-75
2021/06/06 08:56:51;;;;;;;39.40;25.92;;;;;;;21.16;97.11;101467.06;5035344;28;20029;-76
2021/06/06 08:59:27;;;;;;;41.03;25.83;;;;;;;21.23;96.70;101467.81;5031016;28;20537;-76
2021/06/06 09:01:56;;;;;;;37.85;24.58;;;;;;;21.26;96.53;101474.41;5042143;28;20035;-76
2021/06/06 09:04:33;;;;;;;37.13;24.70;;;;;;;21.28;96.44;101478.31;5041946;28;20043;-76
2021/06/06 09:07:06;;;;;;;40.75;25.67;;;;;;;21.30;96.87;101475.16;5042444;28;20057;-76
2021/06/06 09:09:37;;;;;;;38.33;24.73;;;;;;;21.45;96.15;101476.56;5045764;28;20033;-76
2021/06/06 09:12:07;;;;;;;38.28;23.42;;;;;;;21.42;96.76;101480.13;5037698;28;20111;-76
2021/06/06 09:14:34;;;;;;;42.38;26.40;;;;;;;21.52;95.58;101481.97;5042478;28;20029;-76
2021/06/06 09:17:09;;;;;;;41.45;26.58;;;;;;;21.58;94.95;101480.34;5048745;28;20108;-76
2021/06/06 09:19:45;;;;;;;38.42;24.48;;;;;;;21.64;94.70;101483.41;5041837;28;20094;-76
2021/06/06 09:22:14;;;;;;;39.17;25.58;;;;;;;21.67;94.42;101480.63;5034789;28;20743;-76
2021/06/06 09:24:48;;;;;;;39.75;24.80;;;;;;;21.65;94.43;101474.78;5038183;28;20611;-77
2021/06/06 09:27:15;;;;;;;38.67;24.50;;;;;;;21.66;95.30;101483.78;5046611;28;20120;-76
2021/06/06 09:29:42;;;;;;;37.50;24.52;;;;;;;21.69;95.39;101475.50;5037782;28;20509;-76
2021/06/06 09:32:15;;;;;;;38.22;24.67;;;;;;;21.77;93.92;101481.69;5031388;28;20037;-76
2021/06/06 09:35:19;;;;;;;41.30;26.52;;;;;;;21.69;94.18;101485.69;5039865;28;22019;-76
2021/06/06 09:37:52;;;;;;;42.53;26.63;;;;;;;21.81;93.65;101483.22;4970449;28;20039;-77
2021/06/06 09:40:37;;;;;;;48.40;26.25;;;;;;;21.73;94.12;101492.69;5036058;28;20053;-76
2021/06/06 09:43:03;;;;;;;44.60;26.15;;;;;;;21.73;94.24;101486.44;5029385;28;20485;-76
2021/06/06 09:45:34;;;;;;;41.65;26.67;;;;;;;21.80;94.10;101487.16;5034765;28;20037;-77
2021/06/06 09:48:10;;;;;;;43.97;26.48;;;;;;;21.79;94.63;101484.78;5043940;28;20401;-76
2021/06/06 09:50:47;;;;;;;41.58;26.55;;;;;;;21.84;94.22;101490.63;5038643;28;20033;-77
2021/06/06 09:53:26;;;;;;;42.70;25.63;;;;;;;21.90;92.71;101488.19;5033288;28;20115;-77
2021/06/06 09:56:03;;;;;;;39.03;25.55;;;;;;;21.89;92.96;101490.16;5045032;28;20036;-77
2021/06/06 09:58:33;;;;;;;39.55;25.20;;;;;;;21.91;92.72;101487.78;5031847;28;20127;-76
2021/06/06 10:01:23;;;;;;;37.83;24.27;;;;;;;21.91;92.74;101493.28;5037751;28;20025;-77
2021/06/06 10:03:54;;;;;;;39.00;24.42;;;;;;;21.94;93.48;101491.69;5040082;28;20584;-77
2021/06/06 10:06:39;;;;;;;41.42;26.42;;;;;;;22.10;92.72;101489.91;5042978;28;20048;-76
2021/06/06 10:09:25;;;;;;;43.58;26.10;;;;;;;22.09;92.41;101504.81;5034382;28;20490;-77
2021/06/06 10:12:07;;;;;;;42.38;26.23;;;;;;;22.08;93.16;101503.28;5044345;28;20037;-77
2021/06/06 10:14:56;;;;;;;46.30;27.80;;;;;;;22.21;91.72;101497.97;5043073;28;20025;-77
2021/06/06 10:17:51;;;;;;;46.38;27.45;;;;;;;22.05;92.61;101503.28;5039982;28;20037;-77
2021/06/06 10:20:33;;;;;;;45.67;28.52;;;;;;;22.20;91.93;101499.19;5039680;28;20117;-77
2021/06/06 10:23:08;;;;;;;42.88;27.65;;;;;;;22.32;90.89;101501.34;5039787;28;20505;-78
2021/06/06 10:25:54;;;;;;;44.42;27.83;;;;;;;22.20;90.98;101504.69;5040778;28;20041;-77
2021/06/06 10:28:29;;;;;;;44.30;27.58;;;;;;;22.25;91.48;101501.47;5040016;28;20025;-76
2021/06/06 10:31:23;;;;;;;38.25;25.20;;;;;;;22.22;91.66;101502.31;5044185;28;20044;-77
2021/06/06 10:34:12;;;;;;;45.35;25.85;;;;;;;22.33;91.08;101505.66;5040044;28;20067;-78
2021/06/06 10:36:40;;;;;;;41.33;25.88;;;;;;;22.20;91.37;101505.44;5043088;28;20067;-77
2021/06/06 10:39:08;;;;;;;39.22;25.73;;;;;;;22.18;91.60;101510.56;5025473;28;20065;-77
2021/06/06 10:41:36;;;;;;;42.08;26.65;;;;;;;22.19;92.22;101514.09;5030792;28;20056;-77
2021/06/06 10:44:15;;;;;;;43.17;26.02;;;;;;;22.13;92.21;101505.53;5046335;28;20029;-76
2021/06/06 10:47:00;;;;;;;39.42;23.98;;;;;;;22.10;92.69;101517.34;5050124;28;20040;-76
2021/06/06 10:49:30;;;;;;;45.92;26.73;;;;;;;22.16;92.80;101520.41;5044189;28;20041;-77
2021/06/06 10:52:00;;;;;;;43.70;26.27;;;;;;;22.07;92.57;101517.38;5023371;28;20068;-76
2021/06/06 10:54:47;;;;;;;41.03;26.27;;;;;;;22.05;93.15;101520.53;5037504;28;20025;-77
2021/06/06 10:57:26;;;;;;;38.80;23.45;;;;;;;22.10;92.36;101513.81;5043285;28;20489;-77
2021/06/06 11:00:25;;;;;;;37.03;23.73;;;;;;;22.11;92.65;101509.88;5034110;28;20191;-77
2021/06/06 11:03:06;;;;;;;35.78;22.95;;;;;;;22.10;92.59;101513.81;5033601;28;20048;-77
2021/06/06 11:05:37;;;;;;;37.97;24.15;;;;;;;22.09;93.32;101517.75;5033720;28;20029;-76
2021/06/06 11:08:36;;;;;;;41.13;23.55;;;;;;;22.14;93.28;101522.78;5045742;28;20098;-77
2021/06/06 11:11:17;;;;;;;40.53;26.75;;;;;;;22.18;92.57;101512.53;5028829;28;20049;-76
2021/06/06 11:16:15;;;;;;;39.95;25.48;;;;;;;22.25;92.98;101512.44;5062500;28;20123;-73
2021/06/06 11:18:50;;;;;;;;;;;;;;;22.35;92.46;101511.53;5066532;28;20029;-73
2021/06/06 11:21:27;;;;;;;38.95;23.95;;;;;;;22.33;91.53;101506.44;5064693;28;19916;-72
2021/06/06 11:23:59;;;;;;;41.97;25.75;;;;;;;22.24;92.47;101510.91;5074894;28;20038;-73
2021/06/06 11:26:31;;;;;;;45.55;27.70;;;;;;;22.28;91.85;101503.38;5084024;28;20046;-72
2021/06/06 11:29:14;;;;;;;44.67;26.17;;;;;;;22.38;92.57;101513.41;5074942;28;20496;-71
2021/06/06 11:32:14;;;;;;;45.30;26.70;;;;;;;22.32;92.75;101512.34;5078749;28;20047;-72
2021/06/06 11:34:46;;;;;;;45.50;27.70;;;;;;;22.43;92.44;101515.72;5087559;28;20134;-72